Time;durP1;ratioP1;P1;durP2;ratioP2;P2;SDS_P1;SDS_P2;PMS_P1;PMS_P2;Temp;Humidity;BMP_temperature;BMP_pressure;BME280_temperature;BME280_humidity;BME280_pressure;Samples;Min_cycle;Max_cycle;Signal;HPM_P1;HPM_P2
2023/06/18 00:02:05;;;;;;;51.80;34.50;;;15.10;95.30;;;;;;5046679;28;20092;-68
2023/06/18 00:04:31;;;;;;;55.47;34.77;;;15.20;96.30;;;;;;5028811;28;20580;-68
2023/06/18 00:06:57;;;;;;;57.63;37.17;;;15.10;95.90;;;;;;5046469;28;20775;-68
2023/06/18 00:09:23;;;;;;;50.37;33.23;;;15.10;96.30;;;;;;5063150;28;20502;-68
2023/06/18 00:11:50;;;;;;;50.60;33.77;;;15.00;95.90;;;;;;5049480;28;20041;-68
2023/06/18 00:14:16;;;;;;;53.57;33.93;;;15.00;95.70;;;;;;5033718;28;20292;-68
2023/06/18 00:16:42;;;;;;;49.77;34.53;;;15.00;96.00;;;;;;5063402;28;20283;-68
2023/06/18 00:19:08;;;;;;;56.70;35.57;;;15.00;95.90;;;;;;5049964;28;20290;-68
2023/06/18 00:21:34;;;;;;;54.43;34.67;;;15.00;96.30;;;;;;5045094;28;20072;-68
2023/06/18 00:24:00;;;;;;;56.97;37.27;;;15.00;96.50;;;;;;5050476;28;20455;-68
2023/06/18 00:26:25;;;;;;;60.70;37.67;;;15.00;96.70;;;;;;5048137;28;20291;-68
2023/06/18 00:28:52;;;;;;;56.57;37.23;;;15.00;96.70;;;;;;5049172;28;20049;-68
2023/06/18 00:31:19;;;;;;;60.77;37.93;;;14.90;96.90;;;;;;5049791;28;20071;-68
2023/06/18 00:33:45;;;;;;;57.70;36.90;;;14.90;97.10;;;;;;5050262;28;20707;-68
2023/06/18 00:36:12;;;;;;;62.17;37.23;;;14.90;97.50;;;;;;5046380;28;20291;-68
2023/06/18 00:38:46;;;;;;;61.03;37.30;;;14.90;97.40;;;;;;5033203;28;21609;-68
2023/06/18 00:41:12;;;;;;;62.55;38.33;;;14.90;98.10;;;;;;5066756;28;20813;-68
2023/06/18 00:43:38;;;;;;;60.57;37.43;;;14.90;97.80;;;;;;5050067;28;20068;-68
2023/06/18 00:46:05;;;;;;;56.17;36.43;;;14.90;98.00;;;;;;5065163;28;20416;-68
2023/06/18 00:48:32;;;;;;;60.17;37.77;;;14.90;97.90;;;;;;5049689;28;20877;-68
2023/06/18 00:51:01;;;;;;;61.00;36.23;;;14.90;98.50;;;;;;5048808;28;20334;-68
2023/06/18 00:53:28;;;;;;;60.83;36.53;;;14.80;98.60;;;;;;5049178;28;20303;-68
2023/06/18 00:55:53;;;;;;;59.30;37.60;;;14.80;98.70;;;;;;5048920;28;20291;-68
2023/06/18 00:58:23;;;;;;;57.30;34.67;;;14.80;98.70;;;;;;5044066;28;20405;-68
2023/06/18 01:00:50;;;;;;;59.07;36.60;;;14.80;98.30;;;;;;5045240;28;20068;-68
2023/06/18 01:03:20;;;;;;;57.67;36.73;;;14.80;98.40;;;;;;5049065;28;20295;-68
2023/06/18 01:05:49;;;;;;;55.00;36.10;;;14.80;98.90;;;;;;5048559;28;20291;-68
2023/06/18 01:08:17;;;;;;;53.03;35.03;;;14.70;98.90;;;;;;5048800;28;20295;-68
2023/06/18 01:10:43;;;;;;;55.97;35.50;;;14.70;99.20;;;;;;5048423;28;20299;-68
2023/06/18 01:13:14;;;;;;;57.37;36.60;;;14.70;99.30;;;;;;5041974;28;20319;-68
2023/06/18 01:15:40;;;;;;;60.20;36.93;;;14.70;99.50;;;;;;5048407;28;20298;-68
2023/06/18 01:18:07;;;;;;;56.20;35.40;;;14.70;99.60;;;;;;5048304;28;20290;-68
2023/06/18 01:20:44;;;;;;;59.17;36.57;;;14.70;99.40;;;;;;5042004;28;20294;-68
2023/06/18 01:23:21;;;;;;;54.07;36.77;;;14.70;99.70;;;;;;5064080;28;20279;-68
2023/06/18 01:25:46;;;;;;;52.00;34.60;;;14.60;99.60;;;;;;5047426;28;20298;-68
2023/06/18 01:28:15;;;;;;;57.47;35.80;;;14.50;99.40;;;;;;5062262;28;20386;-67
2023/06/18 01:30:41;;;;;;;52.87;33.77;;;14.50;99.30;;;;;;5048723;28;20056;-68
2023/06/18 01:33:12;;;;;;;53.63;34.97;;;14.50;99.20;;;;;;5048734;28;20367;-68
2023/06/18 01:35:38;;;;;;;57.70;36.47;;;14.50;99.40;;;;;;5048691;28;20047;-68
2023/06/18 01:38:16;;;;;;;51.33;34.00;;;14.50;99.90;;;;;;5044550;28;20284;-68
2023/06/18 01:40:52;;;;;;;57.47;36.60;;;14.50;99.90;;;;;;5045868;28;20045;-68
2023/06/18 01:43:27;;;;;;;56.27;35.57;;;14.40;99.90;;;;;;5047735;28;20279;-68
2023/06/18 01:46:02;;;;;;;54.13;35.45;;;14.40;99.90;;;;;;5048095;28;20375;-68
2023/06/18 01:48:33;;;;;;;56.10;34.70;;;14.40;99.90;;;;;;5048836;28;20432;-68
2023/06/18 01:51:00;;;;;;;56.07;35.07;;;14.40;99.90;;;;;;5046877;28;20302;-68
2023/06/18 01:53:28;;;;;;;54.60;35.03;;;14.30;99.90;;;;;;5048255;28;20299;-68
2023/06/18 01:55:59;;;;;;;57.47;34.67;;;14.30;99.90;;;;;;5046740;28;20323;-68
2023/06/18 01:58:25;;;;;;;58.67;36.53;;;14.30;99.90;;;;;;5046604;28;20283;-68
2023/06/18 02:00:52;;;;;;;57.07;35.80;;;14.30;99.90;;;;;;5047885;28;20288;-68
2023/06/18 02:03:19;;;;;;;60.37;35.90;;;14.40;99.90;;;;;;5047927;28;20646;-68
2023/06/18 02:05:45;;;;;;;58.50;35.50;;;14.40;99.90;;;;;;5047217;28;20303;-68
2023/06/18 02:08:11;;;;;;;58.90;36.03;;;14.30;99.90;;;;;;5047963;28;20291;-68
2023/06/18 02:10:37;;;;;;;56.73;34.83;;;14.40;99.90;;;;;;5047849;28;20357;-68
2023/06/18 02:13:02;;;;;;;55.93;35.43;;;14.40;99.90;;;;;;5045781;28;20029;-68
2023/06/18 02:15:29;;;;;;;60.10;35.77;;;14.40;99.90;;;;;;5045632;28;20086;-68
2023/06/18 02:17:54;;;;;;;57.20;35.70;;;14.40;99.90;;;;;;5044918;28;20151;-68
2023/06/18 02:20:20;;;;;;;56.57;34.80;;;14.40;99.90;;;;;;5046466;28;20391;-68
2023/06/18 02:22:46;;;;;;;59.03;36.23;;;14.40;99.90;;;;;;5045950;28;20055;-68
2023/06/18 02:25:12;;;;;;;56.77;35.83;;;14.40;99.90;;;;;;5046024;28;20033;-68
2023/06/18 02:27:38;;;;;;;54.60;34.13;;;14.40;99.90;;;;;;5045462;28;20044;-68
2023/06/18 02:30:04;;;;;;;56.97;34.90;;;14.30;99.90;;;;;;5043907;28;20758;-68
2023/06/18 02:32:34;;;;;;;56.47;34.70;;;14.30;99.90;;;;;;5056135;28;20053;-68
2023/06/18 02:35:00;;;;;;;54.23;34.57;;;14.40;99.90;;;;;;5041417;28;20287;-68
2023/06/18 02:37:27;;;;;;;54.50;33.37;;;14.30;99.90;;;;;;5045496;28;20290;-68
2023/06/18 02:39:54;;;;;;;53.57;33.83;;;14.30;99.90;;;;;;5045952;28;20052;-68
2023/06/18 02:42:20;;;;;;;55.33;33.63;;;14.30;99.90;;;;;;5042662;28;20325;-68
2023/06/18 02:44:47;;;;;;;54.80;35.63;;;14.30;99.90;;;;;;5028185;28;20307;-68
2023/06/18 02:47:12;;;;;;;54.57;35.07;;;14.20;99.90;;;;;;5044987;28;20385;-68
2023/06/18 02:49:38;;;;;;;55.40;35.33;;;14.20;99.90;;;;;;5043860;28;20346;-68
2023/06/18 02:52:04;;;;;;;57.77;34.83;;;14.20;99.90;;;;;;5045831;28;20045;-68
2023/06/18 02:54:30;;;;;;;57.87;35.33;;;14.20;99.90;;;;;;5045170;28;20025;-68
2023/06/18 02:56:56;;;;;;;56.57;35.13;;;14.30;99.90;;;;;;5045827;28;20283;-68
2023/06/18 02:59:21;;;;;;;57.93;36.03;;;14.30;99.90;;;;;;5044328;28;20141;-68
2023/06/18 03:01:48;;;;;;;52.63;33.73;;;14.30;99.90;;;;;;5045239;28;20049;-68
2023/06/18 03:04:13;;;;;;;55.27;34.93;;;14.30;99.90;;;;;;5043889;28;20281;-68
2023/06/18 03:06:40;;;;;;;55.10;33.37;;;14.30;99.90;;;;;;5036235;28;20909;-68
2023/06/18 03:09:06;;;;;;;53.13;33.67;;;14.30;99.90;;;;;;5044145;28;20045;-68
2023/06/18 03:11:32;;;;;;;56.37;34.63;;;14.30;99.90;;;;;;5044387;28;20613;-68
2023/06/18 03:13:57;;;;;;;52.23;33.73;;;14.40;99.90;;;;;;5061715;28;20045;-68
2023/06/18 03:16:23;;;;;;;52.07;31.77;;;14.40;99.90;;;;;;5056281;28;20477;-68
2023/06/18 03:18:50;;;;;;;52.17;34.07;;;14.40;99.90;;;;;;5046959;28;20692;-68
2023/06/18 03:21:16;;;;;;;51.77;33.50;;;14.50;99.90;;;;;;5046538;28;20348;-68
2023/06/18 03:23:43;;;;;;;52.07;33.13;;;14.50;99.90;;;;;;5047228;28;20362;-68
2023/06/18 03:26:09;;;;;;;50.30;32.87;;;14.50;99.90;;;;;;5046745;28;20146;-68
2023/06/18 03:28:36;;;;;;;55.23;34.33;;;14.50;99.90;;;;;;5046338;28;20302;-68
2023/06/18 03:31:02;;;;;;;51.97;33.00;;;14.60;99.90;;;;;;5042627;28;20307;-68
2023/06/18 03:33:31;;;;;;;51.03;33.87;;;14.60;99.90;;;;;;5029901;28;20335;-68
2023/06/18 03:36:00;;;;;;;52.13;33.60;;;14.60;99.90;;;;;;5046337;28;20037;-68
2023/06/18 03:38:29;;;;;;;52.77;33.07;;;14.60;99.90;;;;;;5041868;28;20283;-68
2023/06/18 03:40:55;;;;;;;50.67;32.37;;;14.60;99.90;;;;;;5046716;28;20346;-68
2023/06/18 03:43:21;;;;;;;50.27;33.03;;;14.70;99.90;;;;;;5045776;28;20383;-68
2023/06/18 03:45:47;;;;;;;48.37;31.83;;;14.70;99.90;;;;;;5046337;28;20148;-68
2023/06/18 03:48:13;;;;;;;50.77;31.17;;;14.80;99.90;;;;;;5046484;28;20041;-68
2023/06/18 03:50:38;;;;;;;48.27;32.27;;;14.90;99.90;;;;;;5029893;28;20635;-68
2023/06/18 03:53:04;;;;;;;43.17;30.13;;;14.90;99.90;;;;;;5046519;28;20399;-68
2023/06/18 03:55:30;;;;;;;44.10;29.23;;;15.00;99.90;;;;;;5030209;28;20111;-68
2023/06/18 03:57:56;;;;;;;45.33;30.90;;;15.10;99.90;;;;;;5062905;28;20098;-69
2023/06/18 04:00:21;;;;;;;49.93;32.53;;;15.20;99.90;;;;;;5046714;28;20048;-68
2023/06/18 04:02:47;;;;;;;44.73;30.17;;;15.20;99.90;;;;;;5035772;28;20287;-68
2023/06/18 04:05:13;;;;;;;42.87;30.60;;;15.30;99.90;;;;;;5046467;28;20142;-68
2023/06/18 04:07:39;;;;;;;40.50;28.03;;;15.30;99.90;;;;;;5046040;28;20048;-68
2023/06/18 04:10:05;;;;;;;45.27;30.97;;;15.40;99.90;;;;;;5045595;28;20315;-68
2023/06/18 04:12:31;;;;;;;49.93;31.50;;;15.40;99.90;;;;;;5061051;28;20041;-68
2023/06/18 04:14:56;;;;;;;47.23;31.70;;;15.50;99.90;;;;;;5045672;28;20272;-68
2023/06/18 04:17:26;;;;;;;48.40;31.43;;;15.50;99.90;;;;;;5046593;28;20091;-68
2023/06/18 04:19:52;;;;;;;47.33;32.10;;;15.60;99.90;;;;;;5062433;28;20049;-68
2023/06/18 04:22:17;;;;;;;47.33;32.20;;;15.60;99.90;;;;;;5046302;28;20296;-68
2023/06/18 04:24:43;;;;;;;50.70;32.87;;;15.60;99.90;;;;;;5045167;28;20076;-68
2023/06/18 04:27:09;;;;;;;45.00;31.87;;;15.70;99.90;;;;;;5046344;28;20396;-68
2023/06/18 04:29:34;;;;;;;50.03;31.87;;;15.70;99.90;;;;;;5046040;28;20045;-68
2023/06/18 04:32:00;;;;;;;47.23;32.03;;;15.60;99.90;;;;;;5046166;28;20124;-69
2023/06/18 04:34:26;;;;;;;44.23;30.33;;;15.70;99.90;;;;;;5045247;28;20515;-68
2023/06/18 04:36:51;;;;;;;46.07;31.83;;;15.70;99.90;;;;;;5046210;28;20037;-68
2023/06/18 04:39:17;;;;;;;45.03;30.10;;;15.80;99.90;;;;;;5046188;28;20048;-68
2023/06/18 04:41:43;;;;;;;44.03;30.83;;;15.90;99.90;;;;;;5045720;28;20036;-68
2023/06/18 04:44:12;;;;;;;45.47;30.10;;;15.90;99.90;;;;;;5045572;28;20048;-68
2023/06/18 04:46:39;;;;;;;46.33;31.60;;;16.00;99.90;;;;;;5045833;28;20076;-68
2023/06/18 04:49:05;;;;;;;49.00;32.40;;;16.20;99.80;;;;;;5045996;28;21112;-68
2023/06/18 04:51:31;;;;;;;43.53;31.17;;;16.30;99.60;;;;;;5042002;28;20280;-68
2023/06/18 04:53:56;;;;;;;46.00;31.47;;;16.40;99.20;;;;;;5044872;28;20299;-68
2023/06/18 04:56:22;;;;;;;43.23;31.37;;;16.50;98.90;;;;;;5048499;28;20037;-68
2023/06/18 04:58:48;;;;;;;41.33;30.20;;;16.60;98.50;;;;;;5049308;28;20505;-68
2023/06/18 05:01:14;;;;;;;39.63;30.43;;;16.80;98.00;;;;;;5049214;28;20046;-68
2023/06/18 05:03:40;;;;;;;39.77;28.30;;;16.90;97.30;;;;;;5049464;28;20087;-68
2023/06/18 05:06:06;;;;;;;37.87;28.10;;;17.00;96.90;;;;;;5047914;28;20041;-68
2023/06/18 05:08:31;;;;;;;40.67;29.57;;;17.20;96.10;;;;;;5065815;28;20041;-68
2023/06/18 05:10:57;;;;;;;41.30;29.23;;;17.30;95.30;;;;;;5048804;28;20306;-68
2023/06/18 05:13:23;;;;;;;37.97;28.57;;;17.40;93.90;;;;;;5049350;28;20389;-68
2023/06/18 05:15:49;;;;;;;39.00;28.90;;;17.40;93.40;;;;;;5047799;28;20040;-68
2023/06/18 05:18:14;;;;;;;38.80;28.77;;;17.40;92.90;;;;;;5049699;28;20126;-68
2023/06/18 05:20:40;;;;;;;41.53;29.03;;;17.40;92.70;;;;;;5064783;28;20501;-68
2023/06/18 05:23:06;;;;;;;38.53;29.33;;;17.40;92.60;;;;;;5058969;28;20064;-68
2023/06/18 05:25:34;;;;;;;39.07;28.97;;;17.30;92.70;;;;;;5044164;28;20597;-68
2023/06/18 05:28:00;;;;;;;38.53;28.67;;;17.30;93.00;;;;;;5033068;28;20396;-68
2023/06/18 05:30:25;;;;;;;36.13;28.30;;;17.30;93.10;;;;;;5048939;28;20299;-68
2023/06/18 05:32:51;;;;;;;39.83;28.00;;;17.40;93.20;;;;;;5049293;28;20429;-68
2023/06/18 05:35:17;;;;;;;38.40;28.13;;;17.50;93.50;;;;;;5063866;28;20160;-68
2023/06/18 05:37:42;;;;;;;38.73;28.83;;;17.80;93.00;;;;;;5047576;28;20032;-68
2023/06/18 05:40:09;;;;;;;37.27;28.20;;;17.90;91.80;;;;;;5048083;28;20584;-68
2023/06/18 05:42:35;;;;;;;36.43;27.13;;;18.10;91.30;;;;;;5048933;28;20555;-68
2023/06/18 05:45:00;;;;;;;37.53;28.00;;;18.30;90.50;;;;;;5032179;28;20283;-68
2023/06/18 05:47:26;;;;;;;36.70;28.23;;;18.30;89.70;;;;;;5048244;28;20770;-68
2023/06/18 05:49:52;;;;;;;37.70;28.20;;;18.40;89.90;;;;;;5048962;28;20044;-68
2023/06/18 05:52:17;;;;;;;41.07;28.80;;;18.50;89.10;;;;;;5048167;28;20396;-68
2023/06/18 05:54:43;;;;;;;38.13;27.70;;;18.70;89.20;;;;;;5048344;28;20120;-68
2023/06/18 05:57:11;;;;;;;36.83;27.60;;;18.90;88.60;;;;;;5030722;28;20045;-68
2023/06/18 05:59:36;;;;;;;34.47;27.30;;;18.90;87.60;;;;;;5048792;28;20052;-68
2023/06/18 06:02:02;;;;;;;35.87;27.40;;;18.90;88.30;;;;;;5047486;28;20287;-68
2023/06/18 06:04:28;;;;;;;40.30;28.53;;;18.90;87.70;;;;;;5047497;28;20047;-68
2023/06/18 06:06:54;;;;;;;34.97;27.33;;;18.90;87.60;;;;;;5047353;28;20113;-68
2023/06/18 06:09:19;;;;;;;36.03;27.00;;;18.80;87.50;;;;;;5047350;28;20132;-68
2023/06/18 06:11:45;;;;;;;35.97;27.47;;;18.80;87.70;;;;;;5048221;28;20041;-68
2023/06/18 06:14:11;;;;;;;36.10;27.37;;;18.90;88.20;;;;;;5048157;28;20519;-73
2023/06/18 06:16:37;;;;;;;35.73;27.53;;;19.10;87.10;;;;;;5064495;28;20036;-68
2023/06/18 06:19:03;;;;;;;34.90;26.33;;;19.20;86.80;;;;;;5047679;28;20040;-68
2023/06/18 06:21:29;;;;;;;35.87;26.60;;;19.40;86.50;;;;;;5030912;28;20287;-68
2023/06/18 06:23:56;;;;;;;35.10;26.90;;;19.60;85.60;;;;;;5064612;28;20037;-68
2023/06/18 06:26:22;;;;;;;37.67;25.77;;;19.80;85.20;;;;;;5047563;28;20279;-68
2023/06/18 06:28:47;;;;;;;34.20;25.97;;;20.20;84.60;;;;;;5046606;28;20303;-68
2023/06/18 06:31:13;;;;;;;33.37;25.73;;;20.70;83.40;;;;;;5064519;28;20120;-68
2023/06/18 06:33:39;;;;;;;29.90;24.07;;;21.30;80.30;;;;;;5047953;28;20043;-68
2023/06/18 06:36:05;;;;;;;34.93;24.60;;;21.50;78.50;;;;;;5047214;28;20045;-68
2023/06/18 06:38:30;;;;;;;32.20;24.20;;;21.40;77.70;;;;;;5046527;28;20033;-68
2023/06/18 06:40:56;;;;;;;31.43;25.13;;;21.10;78.00;;;;;;5047917;28;20079;-68
2023/06/18 06:43:22;;;;;;;35.43;26.23;;;20.80;79.30;;;;;;5047346;28;20049;-68
2023/06/18 06:45:47;;;;;;;34.07;25.67;;;20.70;80.30;;;;;;5047120;28;20049;-68
2023/06/18 06:48:13;;;;;;;32.73;25.47;;;20.50;80.50;;;;;;5045940;28;20047;-68
2023/06/18 06:50:39;;;;;;;34.50;25.80;;;20.30;81.30;;;;;;5030128;28;20045;-68
2023/06/18 06:53:04;;;;;;;32.10;25.47;;;20.30;81.40;;;;;;5047387;28;20039;-68
2023/06/18 06:55:30;;;;;;;33.03;26.23;;;20.20;81.30;;;;;;5045654;28;20117;-68
2023/06/18 06:57:56;;;;;;;32.37;26.10;;;20.20;81.70;;;;;;5045780;28;20052;-68
2023/06/18 07:00:22;;;;;;;31.63;25.90;;;20.30;81.30;;;;;;5028630;28;20037;-68
2023/06/18 07:02:48;;;;;;;32.40;25.70;;;20.20;80.80;;;;;;5046936;28;20087;-68
2023/06/18 07:05:14;;;;;;;31.63;26.27;;;20.30;81.30;;;;;;5046179;28;20539;-68
2023/06/18 07:07:40;;;;;;;31.93;26.17;;;20.30;81.50;;;;;;5046641;28;20029;-68
2023/06/18 07:10:06;;;;;;;31.50;25.07;;;20.40;81.50;;;;;;5045918;28;20509;-68
2023/06/18 07:12:31;;;;;;;31.83;24.97;;;20.30;80.90;;;;;;5046976;28;20447;-68
2023/06/18 07:14:57;;;;;;;30.90;25.57;;;20.40;80.60;;;;;;5047634;28;20129;-68
2023/06/18 07:17:23;;;;;;;34.83;26.17;;;20.40;81.40;;;;;;5047541;28;20041;-68
2023/06/18 07:19:48;;;;;;;35.00;26.30;;;20.60;81.50;;;;;;5040007;28;20095;-68
2023/06/18 07:22:14;;;;;;;33.73;26.70;;;20.90;81.20;;;;;;5046733;28;20461;-68
2023/06/18 07:24:40;;;;;;;31.87;25.00;;;21.10;80.90;;;;;;5046916;28;20036;-68
2023/06/18 07:27:06;;;;;;;37.10;26.60;;;21.30;79.70;;;;;;5030155;28;20498;-68
2023/06/18 07:29:31;;;;;;;33.60;25.70;;;21.50;79.50;;;;;;5046687;28;20060;-68
2023/06/18 07:31:57;;;;;;;33.97;24.93;;;21.70;78.70;;;;;;5047727;28;20044;-68
2023/06/18 07:34:23;;;;;;;33.90;25.83;;;21.90;77.80;;;;;;5046665;28;20047;-68
2023/06/18 07:36:49;;;;;;;29.33;24.73;;;22.00;77.70;;;;;;5047099;28;20025;-68
2023/06/18 07:39:15;;;;;;;31.80;24.23;;;22.20;77.00;;;;;;5046843;28;20032;-68
2023/06/18 07:41:41;;;;;;;32.27;24.57;;;22.40;75.90;;;;;;5043518;28;20456;-68
2023/06/18 07:44:07;;;;;;;30.47;24.87;;;22.60;74.60;;;;;;5044246;28;20041;-68
2023/06/18 07:46:33;;;;;;;28.07;23.00;;;22.80;74.00;;;;;;5024929;28;20075;-68
2023/06/18 07:48:59;;;;;;;28.33;22.93;;;23.00;73.50;;;;;;5042826;28;20485;-68
2023/06/18 07:51:25;;;;;;;25.83;22.60;;;23.20;73.10;;;;;;5041440;28;20134;-68
2023/06/18 07:53:51;;;;;;;30.53;23.87;;;23.30;72.40;;;;;;5042694;28;20399;-68
2023/06/18 07:56:17;;;;;;;29.70;23.27;;;23.40;72.50;;;;;;5045257;28;20039;-68
2023/06/18 07:58:44;;;;;;;30.27;23.10;;;23.40;71.10;;;;;;5044967;28;20106;-68
2023/06/18 08:01:10;;;;;;;28.90;21.77;;;23.40;71.20;;;;;;5028918;28;20076;-68
2023/06/18 08:03:35;;;;;;;29.13;22.73;;;23.50;70.50;;;;;;5046305;28;20043;-68
2023/06/18 08:06:01;;;;;;;27.80;22.40;;;23.50;70.00;;;;;;5043772;28;20124;-68
2023/06/18 08:08:27;;;;;;;26.50;21.50;;;23.50;70.40;;;;;;5038984;28;20052;-68
2023/06/18 08:10:53;;;;;;;28.10;21.30;;;23.50;69.60;;;;;;5041743;28;20045;-68
2023/06/18 08:13:18;;;;;;;27.97;20.77;;;23.40;70.40;;;;;;5027746;28;20524;-68
2023/06/18 08:15:44;;;;;;;25.23;21.00;;;23.40;71.10;;;;;;5040381;28;20069;-68
2023/06/18 08:18:10;;;;;;;26.77;21.77;;;23.60;71.20;;;;;;5035435;28;20414;-68
2023/06/18 08:20:36;;;;;;;26.70;20.27;;;23.70;69.60;;;;;;5037992;28;20110;-68
2023/06/18 08:23:01;;;;;;;26.17;20.87;;;23.70;69.30;;;;;;5038964;28;20037;-68
2023/06/18 08:25:27;;;;;;;26.23;21.37;;;23.60;69.60;;;;;;5039441;28;20060;-68
2023/06/18 08:27:54;;;;;;;24.43;20.47;;;23.70;70.10;;;;;;5040161;28;20119;-68
2023/06/18 08:30:20;;;;;;;26.47;19.77;;;23.70;70.50;;;;;;5041116;28;20052;-68
2023/06/18 08:32:46;;;;;;;22.83;20.23;;;23.90;71.20;;;;;;5041286;28;20041;-68
2023/06/18 08:35:12;;;;;;;24.70;20.43;;;24.10;70.50;;;;;;5041735;28;20116;-68
2023/06/18 08:37:37;;;;;;;25.20;20.90;;;24.30;70.00;;;;;;5043493;28;20033;-68
2023/06/18 08:40:03;;;;;;;23.70;19.80;;;24.60;68.20;;;;;;5039739;28;20052;-68
2023/06/18 08:42:29;;;;;;;25.90;21.30;;;24.70;68.20;;;;;;5029727;28;20033;-68
2023/06/18 08:44:55;;;;;;;23.50;20.23;;;24.80;68.30;;;;;;5059458;28;20505;-68
2023/06/18 08:47:22;;;;;;;23.57;19.10;;;24.90;67.40;;;;;;5048527;28;20048;-68
2023/06/18 08:49:50;;;;;;;23.77;19.57;;;25.10;67.40;;;;;;5061717;28;20038;-68
2023/06/18 08:52:19;;;;;;;25.33;20.03;;;25.20;67.20;;;;;;5049155;28;20178;-68
2023/06/18 08:54:49;;;;;;;25.07;19.60;;;25.30;65.40;;;;;;5030082;28;20568;-68
2023/06/18 08:57:35;;;;;;;22.93;18.70;;;25.40;65.30;;;;;;5046912;28;20040;-68
2023/06/18 09:00:03;;;;;;;22.23;19.40;;;25.50;66.00;;;;;;5040823;28;20131;-68
2023/06/18 09:02:29;;;;;;;21.97;17.57;;;25.60;66.00;;;;;;5044493;28;20485;-68
2023/06/18 09:04:55;;;;;;;23.83;18.13;;;25.90;65.60;;;;;;5049530;28;20041;-68
2023/06/18 09:07:24;;;;;;;25.47;17.83;;;26.10;63.20;;;;;;5032159;28;20064;-70
2023/06/18 09:09:50;;;;;;;20.20;17.33;;;26.10;63.40;;;;;;5049587;28;20044;-70
2023/06/18 09:12:16;;;;;;;22.37;18.60;;;26.20;63.20;;;;;;5063545;28;20473;-69
2023/06/18 09:14:42;;;;;;;20.43;17.40;;;26.30;63.30;;;;;;5048676;28;20430;-69
2023/06/18 09:17:08;;;;;;;18.93;16.13;;;26.50;62.30;;;;;;5031803;28;20037;-70
2023/06/18 09:19:34;;;;;;;20.10;16.57;;;26.60;61.60;;;;;;5049206;28;20048;-69
2023/06/18 09:22:16;;;;;;;20.57;16.30;;;26.60;62.60;;;;;;5047825;28;20191;-69
2023/06/18 09:24:43;;;;;;;17.23;15.43;;;26.90;61.90;;;;;;5044765;28;20063;-69
2023/06/18 09:27:09;;;;;;;20.50;16.47;;;26.90;61.20;;;;;;5047498;28;20047;-69
2023/06/18 09:29:37;;;;;;;18.07;15.10;;;27.00;61.40;;;;;;5048439;28;20140;-69
2023/06/18 09:32:07;;;;;;;16.93;14.20;;;27.10;58.80;;;;;;5031666;28;20056;-69
2023/06/18 09:34:33;;;;;;;16.20;12.13;;;27.00;58.80;;;;;;5047917;28;20519;-69
2023/06/18 09:36:58;;;;;;;12.13;10.10;;;27.00;58.50;;;;;;5047327;28;20037;-69
2023/06/18 09:39:25;;;;;;;14.67;11.20;;;27.10;56.00;;;;;;5047634;28;20052;-69
2023/06/18 09:41:55;;;;;;;12.37;10.53;;;27.30;55.90;;;;;;5064804;28;20545;-69
2023/06/18 09:44:22;;;;;;;11.20;9.73;;;27.50;54.50;;;;;;5047126;28;20044;-69
2023/06/18 09:46:57;;;;;;;13.33;10.63;;;27.70;54.10;;;;;;5043009;28;20124;-69
2023/06/18 09:49:24;;;;;;;13.38;10.55;;;27.90;53.20;;;;;;5044025;28;20040;-69
2023/06/18 09:51:51;;;;;;;16.90;10.03;;;28.00;53.60;;;;;;5064934;28;20046;-69
2023/06/18 09:54:17;;;;;;;13.53;9.60;;;28.10;53.10;;;;;;5047924;28;20044;-69
2023/06/18 09:57:15;;;;;;;10.53;8.80;;;28.30;51.50;;;;;;5026318;28;20037;-69
2023/06/18 09:59:41;;;;;;;10.93;9.53;;;28.40;51.30;;;;;;5034450;28;20440;-69
2023/06/18 10:02:12;;;;;;;15.00;10.17;;;28.50;50.60;;;;;;5041269;28;20132;-69
2023/06/18 10:04:38;;;;;;;11.27;9.60;;;28.60;50.40;;;;;;5043676;28;20128;-69
2023/06/18 10:07:07;;;;;;;12.50;9.60;;;28.80;50.70;;;;;;5044247;28;20444;-69
2023/06/18 10:09:36;;;;;;;11.83;9.10;;;29.00;50.40;;;;;;5045437;28;20060;-69
2023/06/18 10:12:04;;;;;;;10.90;9.73;;;29.20;49.40;;;;;;5039752;28;20041;-69
2023/06/18 10:14:31;;;;;;;11.90;9.10;;;29.30;48.10;;;;;;5047176;28;20480;-69
2023/06/18 10:17:11;;;;;;;10.87;8.53;;;29.40;47.50;;;;;;5046860;28;21153;-69
2023/06/18 10:19:56;;;;;;;13.53;8.87;;;29.50;47.50;;;;;;5045589;28;20047;-69
2023/06/18 10:22:27;;;;;;;11.43;9.47;;;29.60;46.80;;;;;;5046594;28;20048;-68
2023/06/18 10:25:02;;;;;;;11.77;8.70;;;29.60;46.10;;;;;;5042529;28;20051;-69
2023/06/18 10:27:29;;;;;;;10.77;9.10;;;29.50;46.70;;;;;;5025636;28;20493;-69
2023/06/18 10:30:00;;;;;;;10.00;9.00;;;29.50;47.00;;;;;;5043572;28;20057;-69
2023/06/18 10:32:27;;;;;;;11.87;9.30;;;29.50;46.90;;;;;;5043042;28;20037;-69
2023/06/18 10:34:56;;;;;;;10.07;8.93;;;29.50;47.10;;;;;;5047355;28;20044;-69
2023/06/18 10:37:25;;;;;;;8.47;7.57;;;29.50;47.80;;;;;;5045769;28;20426;-69
2023/06/18 10:39:51;;;;;;;8.50;7.23;;;29.60;44.80;;;;;;5046094;28;20049;-69
2023/06/18 10:42:19;;;;;;;8.43;7.10;;;29.60;44.00;;;;;;5034399;28;20072;-69
2023/06/18 10:44:48;;;;;;;10.07;7.00;;;29.50;44.60;;;;;;5034810;28;20451;-69
2023/06/18 10:47:21;;;;;;;9.47;6.87;;;29.50;44.10;;;;;;5040195;28;20348;-68
2023/06/18 10:50:02;;;;;;;7.75;6.95;;;29.60;44.10;;;;;;5041937;28;20102;-69
2023/06/18 10:52:35;;;;;;;8.80;7.87;;;29.60;43.60;;;;;;5043999;28;20131;-69
2023/06/18 10:55:20;;;;;;;7.40;6.70;;;29.70;43.70;;;;;;5043916;28;20071;-68
2023/06/18 10:58:06;;;;;;;;;;;29.90;43.30;;;;;;5043331;28;20397;-69
2023/06/18 11:00:36;;;;;;;8.97;7.33;;;30.00;43.10;;;;;;5045573;28;20431;-69
2023/06/18 11:03:11;;;;;;;9.23;7.63;;;30.10;42.60;;;;;;5031510;28;20103;-68
2023/06/18 11:05:48;;;;;;;9.88;7.00;;;30.20;41.70;;;;;;5048675;28;20087;-68
2023/06/18 11:08:15;;;;;;;9.27;7.50;;;30.40;41.90;;;;;;5045333;28;20119;-68
2023/06/18 11:10:47;;;;;;;9.27;7.50;;;30.70;42.00;;;;;;5029293;28;20253;-68
2023/06/18 11:13:13;;;;;;;7.97;7.17;;;30.90;41.70;;;;;;5041482;28;20056;-69
2023/06/18 11:16:13;;;;;;;8.30;7.37;;;31.00;41.20;;;;;;5039940;28;20036;-69
2023/06/18 11:18:43;;;;;;;8.70;7.00;;;31.20;40.50;;;;;;5031387;28;20053;-68
2023/06/18 11:21:18;;;;;;;7.70;6.70;;;31.30;41.20;;;;;;5047873;28;20528;-68
2023/06/18 11:23:44;;;;;;;6.83;6.13;;;31.40;40.30;;;;;;5046511;28;20612;-68
2023/06/18 11:26:17;;;;;;;7.03;6.33;;;31.50;39.40;;;;;;5029628;28;20459;-69
2023/06/18 11:28:45;;;;;;;7.05;6.32;;;31.50;39.40;;;;;;5044156;28;20447;-70
2023/06/18 11:31:11;;;;;;;6.95;6.25;;;31.50;39.10;;;;;;5048336;28;20446;-69
2023/06/18 11:33:36;;;;;;;7.43;6.18;;;31.50;38.60;;;;;;5043858;28;20100;-68
2023/06/18 11:36:13;;;;;;;7.40;6.30;;;31.50;38.10;;;;;;5044368;28;20044;-68
2023/06/18 11:38:40;;;;;;;7.72;6.32;;;31.60;38.90;;;;;;5043832;28;20075;-70
2023/06/18 11:41:07;;;;;;;6.85;5.68;;;31.60;39.50;;;;;;5041339;28;20047;-69
2023/06/18 11:43:53;;;;;;;7.65;5.50;;;31.70;38.30;;;;;;5045752;28;20049;-70
2023/06/18 11:46:27;;;;;;;7.32;6.22;;;31.90;38.40;;;;;;5036332;28;20049;-70
2023/06/18 11:48:54;;;;;;;6.70;5.97;;;32.00;36.00;;;;;;5064899;28;20049;-69
2023/06/18 11:51:20;;;;;;;7.07;6.38;;;32.00;36.70;;;;;;5044246;28;20875;-69
2023/06/18 11:53:47;;;;;;;7.43;6.10;;;32.00;36.10;;;;;;5045216;28;20091;-70
2023/06/18 11:56:13;;;;;;;8.90;6.00;;;32.00;37.40;;;;;;5043711;28;20045;-70
2023/06/18 11:58:40;;;;;;;7.00;5.95;;;32.00;36.20;;;;;;5046959;28;20037;-69
2023/06/18 12:01:06;;;;;;;5.82;5.22;;;31.90;36.30;;;;;;5045187;28;20087;-70
2023/06/18 12:03:35;;;;;;;6.53;5.50;;;31.90;36.80;;;;;;5030578;28;20072;-70
2023/06/18 12:06:16;;;;;;;;;;;31.90;35.70;;;;;;5049013;28;20194;-70
2023/06/18 12:08:45;;;;;;;8.65;5.65;;;31.70;36.40;;;;;;5032764;28;19916;-70
2023/06/18 12:11:36;;;;;;;6.75;5.82;;;31.50;36.00;;;;;;5016766;28;20044;-69
2023/06/18 12:14:11;;;;;;;8.10;6.15;;;31.50;35.70;;;;;;5023087;28;20073;-69
2023/06/18 12:16:40;;;;;;;7.43;5.80;;;31.40;36.80;;;;;;5013794;28;20048;-70
2023/06/18 12:19:06;;;;;;;6.28;5.68;;;31.30;36.50;;;;;;5029110;28;20033;-70
2023/06/18 12:21:32;;;;;;;8.85;5.90;;;31.30;37.40;;;;;;5032638;28;20144;-71
2023/06/18 12:23:58;;;;;;;6.07;5.50;;;31.30;37.80;;;;;;5015342;28;20132;-71
2023/06/18 12:26:24;;;;;;;7.03;6.20;;;31.30;37.40;;;;;;5031801;28;20126;-70
2023/06/18 12:28:50;;;;;;;7.53;6.00;;;31.30;37.30;;;;;;5030182;28;20208;-70
2023/06/18 12:31:16;;;;;;;6.30;5.70;;;31.30;37.60;;;;;;5048908;28;20120;-70
2023/06/18 12:33:43;;;;;;;6.32;5.72;;;31.30;37.70;;;;;;5031786;28;20508;-70